createdAt,value
2018-08-22T00:00:44.235Z,0.00
2018-08-22T00:03:08.298Z,0.00
2018-08-22T00:04:08.256Z,0.00
2018-08-22T00:05:15.771Z,0.00
2018-08-22T00:06:08.227Z,0.00
2018-08-22T00:07:08.208Z,0.00
2018-08-22T00:08:08.234Z,0.00
2018-08-22T00:09:08.203Z,0.00
2018-08-22T00:10:08.183Z,0.00
2018-08-22T00:11:15.819Z,0.00
2018-08-22T00:12:08.162Z,0.00
2018-08-22T00:13:08.175Z,0.00
2018-08-22T00:16:11.370Z,0.00
2018-08-22T00:18:41.434Z,0.00
2018-08-22T00:21:29.382Z,0.00
2018-08-22T00:22:40.433Z,0.00
2018-08-22T00:23:29.325Z,0.00
2018-08-22T00:24:29.328Z,0.00
2018-08-22T00:26:50.222Z,0.00
2018-08-22T00:27:50.180Z,0.00
2018-08-22T00:30:50.440Z,0.00
2018-08-22T00:33:57.388Z,0.00
2018-08-22T00:35:46.450Z,0.00
2018-08-22T00:36:46.440Z,0.00
2018-08-22T00:37:59.880Z,0.00
2018-08-22T00:38:46.383Z,0.00
2018-08-22T00:39:46.374Z,0.00
2018-08-22T00:40:59.966Z,0.00
2018-08-22T00:41:46.432Z,0.00
2018-08-22T00:42:46.351Z,0.00
2018-08-22T00:44:02.022Z,0.00
2018-08-22T00:44:46.328Z,0.00
2018-08-22T00:45:46.312Z,0.00
2018-08-22T00:46:57.587Z,0.00
2018-08-22T00:47:46.291Z,0.00
2018-08-22T00:48:46.282Z,0.00
2018-08-22T00:50:00.615Z,0.00
2018-08-22T00:50:46.253Z,0.00
2018-08-22T00:51:46.290Z,0.00
2018-08-22T00:52:56.174Z,0.00
2018-08-22T00:53:46.223Z,0.00
2018-08-22T00:54:46.215Z,0.00
2018-08-22T00:55:56.676Z,0.00
2018-08-22T00:56:46.235Z,0.00
2018-08-22T00:57:46.186Z,0.00
2018-08-22T00:58:56.210Z,0.00
2018-08-22T00:59:46.212Z,0.00
2018-08-22T01:00:46.145Z,0.00
2018-08-22T01:01:57.768Z,0.00
2018-08-22T01:02:46.111Z,0.00
2018-08-22T01:03:46.106Z,0.00
2018-08-22T01:04:54.263Z,0.00
2018-08-22T01:05:46.094Z,0.00
2018-08-22T01:06:46.066Z,0.00
2018-08-22T01:07:55.348Z,0.00
2018-08-22T01:08:46.046Z,0.00
2018-08-22T01:09:46.036Z,0.00
2018-08-22T01:10:54.852Z,0.00
2018-08-22T01:11:46.072Z,0.00
2018-08-22T01:12:46.004Z,0.00
2018-08-22T01:13:53.870Z,0.00
2018-08-22T01:14:45.980Z,0.00
2018-08-22T01:15:45.972Z,0.00
2018-08-22T01:16:56.418Z,0.00
2018-08-22T01:17:45.963Z,0.00
2018-08-22T01:18:45.975Z,0.00
2018-08-22T01:19:54.941Z,0.00
2018-08-22T01:20:45.925Z,0.00
2018-08-22T01:21:45.907Z,0.00
2018-08-22T01:22:55.013Z,0.00
2018-08-22T01:23:45.887Z,0.00
2018-08-22T01:24:45.877Z,0.00
2018-08-22T01:25:54.507Z,0.00
2018-08-22T01:26:45.868Z,0.00
2018-08-22T01:27:45.897Z,0.00
2018-08-22T01:30:41.384Z,0.00
2018-08-22T01:31:48.828Z,0.00
2018-08-22T01:32:41.293Z,0.00
2018-08-22T01:33:41.316Z,0.00
2018-08-22T01:34:50.898Z,0.00
2018-08-22T01:35:41.262Z,0.00
2018-08-22T01:36:41.244Z,0.00
2018-08-22T01:37:48.902Z,0.00
2018-08-22T01:38:41.218Z,0.00
2018-08-22T01:39:41.244Z,0.00
2018-08-22T01:40:48.926Z,0.00
2018-08-22T01:41:41.198Z,0.00
2018-08-22T01:42:41.212Z,0.00
2018-08-22T01:43:41.164Z,0.00
2018-08-22T01:44:41.192Z,0.00
2018-08-22T01:45:41.138Z,0.00
2018-08-22T01:46:48.958Z,0.00
2018-08-22T01:47:41.120Z,0.00
2018-08-22T01:48:41.104Z,0.00
2018-08-22T01:49:50.529Z,0.00
2018-08-22T01:50:41.095Z,0.00
2018-08-22T01:51:41.081Z,0.00
2018-08-22T01:52:41.084Z,0.00
2018-08-22T01:53:41.059Z,0.00
2018-08-22T01:54:41.081Z,0.00
2018-08-22T01:55:41.047Z,0.00
2018-08-22T01:56:41.027Z,0.00
2018-08-22T01:57:41.027Z,0.00
2018-08-22T01:58:48.582Z,0.00
2018-08-22T01:59:41.021Z,0.00
2018-08-22T02:00:41.017Z,0.00
2018-08-22T02:01:40.974Z,0.00
2018-08-22T02:02:40.959Z,0.00
2018-08-22T02:03:40.949Z,0.00
2018-08-22T02:04:48.572Z,0.00
2018-08-22T02:05:40.968Z,0.00
2018-08-22T02:06:40.919Z,0.00
2018-08-22T02:07:40.940Z,0.00
2018-08-22T02:08:40.889Z,0.00
2018-08-22T02:09:40.885Z,0.00
2018-08-22T02:10:40.918Z,0.00
2018-08-22T02:11:40.861Z,0.00
2018-08-22T02:12:40.847Z,0.00
2018-08-22T02:13:40.828Z,0.00
2018-08-22T02:14:40.863Z,0.00
2018-08-22T02:15:40.824Z,0.00
2018-08-22T02:16:40.803Z,0.00
2018-08-22T02:17:40.778Z,0.00
2018-08-22T02:18:40.764Z,0.00
2018-08-22T02:19:40.780Z,0.00
2018-08-22T02:20:40.750Z,0.00
2018-08-22T02:21:40.752Z,0.00
2018-08-22T02:22:40.761Z,0.00
2018-08-22T02:23:40.712Z,0.00
2018-08-22T02:24:40.746Z,0.00
2018-08-22T02:25:40.686Z,0.00
2018-08-22T02:26:40.676Z,0.00
2018-08-22T02:27:40.675Z,0.00
2018-08-22T02:28:40.674Z,0.00
2018-08-22T02:29:40.694Z,0.00
2018-08-22T02:30:40.626Z,0.00
2018-08-22T02:31:40.623Z,0.00
2018-08-22T02:32:40.623Z,0.00
2018-08-22T02:33:40.606Z,0.00
2018-08-22T02:34:40.644Z,0.00
2018-08-22T02:35:40.589Z,0.00
2018-08-22T02:36:40.574Z,0.00
2018-08-22T02:39:37.486Z,0.00
2018-08-22T02:42:05.443Z,0.00
2018-08-22T02:43:05.394Z,0.00
2018-08-22T02:44:05.422Z,0.00
2018-08-22T02:45:05.383Z,0.00
2018-08-22T02:46:05.352Z,0.00
2018-08-22T02:47:13.964Z,0.00
2018-08-22T02:48:05.349Z,0.00
2018-08-22T02:49:05.371Z,0.00
2018-08-22T02:50:14.006Z,0.00
2018-08-22T02:51:05.290Z,0.00
2018-08-22T02:52:05.272Z,0.00
2018-08-22T02:53:13.022Z,0.00
2018-08-22T02:54:05.300Z,0.00
2018-08-22T02:55:05.248Z,0.00
2018-08-22T02:56:19.100Z,0.00
2018-08-22T02:57:05.216Z,0.00
2018-08-22T02:58:05.229Z,0.00
2018-08-22T02:59:16.154Z,0.00
2018-08-22T03:00:05.192Z,0.00
2018-08-22T03:01:05.194Z,0.00
2018-08-22T03:02:14.664Z,0.00
2018-08-22T03:03:05.158Z,0.00
2018-08-22T03:04:05.134Z,0.00
2018-08-22T03:05:14.256Z,0.00
2018-08-22T03:06:05.134Z,0.00
2018-08-22T03:07:05.124Z,0.00
2018-08-22T03:08:13.754Z,0.00
2018-08-22T03:09:05.092Z,0.00
2018-08-22T03:10:05.130Z,0.00
2018-08-22T03:11:14.780Z,0.00
2018-08-22T03:12:05.083Z,0.00
2018-08-22T03:13:05.081Z,0.00
2018-08-22T03:14:15.319Z,0.00
2018-08-22T03:15:05.032Z,0.00
2018-08-22T03:16:05.020Z,0.00
2018-08-22T03:17:12.845Z,0.00
2018-08-22T03:18:05.040Z,0.00
2018-08-22T03:19:04.992Z,0.00
2018-08-22T03:20:15.388Z,0.00
2018-08-22T03:21:04.962Z,0.00
2018-08-22T03:22:04.963Z,0.00
2018-08-22T03:23:16.460Z,0.00
2018-08-22T03:24:04.933Z,0.00
2018-08-22T03:25:04.935Z,0.00
2018-08-22T03:26:16.551Z,0.00
2018-08-22T03:27:04.927Z,4.00
2018-08-22T03:28:04.906Z,4.00
2018-08-22T03:29:04.872Z,0.00
2018-08-22T03:30:04.864Z,4.00
2018-08-22T03:31:04.838Z,4.00
2018-08-22T03:34:08.423Z,8.00
2018-08-22T03:35:08.418Z,8.00
2018-08-22T03:36:08.386Z,8.00
2018-08-22T03:37:08.361Z,8.00
2018-08-22T03:38:23.427Z,12.00
2018-08-22T03:39:08.343Z,12.00
2018-08-22T03:40:08.379Z,16.00
2018-08-22T03:41:15.960Z,20.00
2018-08-22T03:42:08.315Z,20.00
2018-08-22T03:43:08.311Z,24.00
2018-08-22T03:45:32.524Z,36.00
2018-08-22T03:46:32.433Z,40.00
2018-08-22T03:47:32.431Z,44.00
2018-08-22T03:48:32.444Z,52.00
2018-08-22T03:49:40.885Z,60.00
2018-08-22T03:50:32.457Z,68.00
2018-08-22T03:51:32.377Z,76.00
2018-08-22T03:52:39.911Z,84.00
2018-08-22T03:53:32.385Z,96.00
2018-08-22T03:54:32.379Z,104.00
2018-08-22T03:58:39.452Z,156.00
2018-08-22T03:59:39.429Z,172.00
2018-08-22T04:00:39.387Z,188.00
2018-08-22T04:01:48.940Z,204.00
2018-08-22T04:02:39.366Z,220.00
2018-08-22T04:03:39.384Z,240.00
2018-08-22T04:04:54.517Z,256.00
2018-08-22T04:05:39.327Z,276.00
2018-08-22T04:06:39.329Z,300.00
2018-08-22T04:09:02.956Z,352.00
2018-08-22T04:10:02.922Z,376.00
2018-08-22T04:11:02.905Z,400.00
2018-08-22T04:12:02.935Z,420.00
2018-08-22T04:13:02.887Z,448.00
2018-08-22T04:14:02.877Z,472.00
2018-08-22T04:15:02.867Z,500.00
2018-08-22T04:18:23.481Z,592.00
2018-08-22T04:19:32.188Z,620.00
2018-08-22T04:20:23.434Z,648.00
2018-08-22T04:21:23.444Z,680.00
2018-08-22T04:25:15.537Z,792.00
2018-08-22T04:26:15.495Z,824.00
2018-08-22T04:27:15.497Z,848.00
2018-08-22T04:30:17.498Z,936.00
2018-08-22T04:31:17.449Z,968.00
2018-08-22T04:32:17.481Z,996.00
2018-08-22T04:33:17.443Z,1024.00
2018-08-22T04:34:32.069Z,1052.00
2018-08-22T04:35:17.413Z,1076.00
2018-08-22T04:36:17.405Z,1104.00
2018-08-22T04:37:26.603Z,1132.00
2018-08-22T04:38:17.375Z,1156.00
2018-08-22T04:39:17.408Z,1180.00
2018-08-22T04:40:17.365Z,1208.00
2018-08-22T04:41:17.340Z,1232.00
2018-08-22T04:42:17.331Z,1256.00
2018-08-22T04:43:26.607Z,1284.00
2018-08-22T04:44:17.304Z,1312.00
2018-08-22T04:45:17.297Z,1336.00
2018-08-22T04:46:17.288Z,1360.00
2018-08-22T04:47:17.271Z,1384.00
2018-08-22T04:48:17.339Z,1412.00
2018-08-22T04:49:17.295Z,1440.00
2018-08-22T04:50:17.239Z,1468.00
2018-08-22T04:51:17.229Z,1496.00
2018-08-22T04:52:17.225Z,1516.00
2018-08-22T04:53:17.205Z,1544.00
2018-08-22T04:54:17.235Z,1568.00
2018-08-22T04:55:17.228Z,1592.00
2018-08-22T04:56:17.170Z,1616.00
2018-08-22T04:57:17.163Z,1640.00
2018-08-22T04:58:17.137Z,1664.00
2018-08-22T04:59:17.155Z,1684.00
2018-08-22T05:00:17.125Z,1708.00
2018-08-22T05:01:17.118Z,1732.00
2018-08-22T05:02:17.098Z,1752.00
2018-08-22T05:03:17.090Z,1772.00
2018-08-22T05:04:17.099Z,1796.00
2018-08-22T05:05:17.078Z,1820.00
2018-08-22T05:06:17.056Z,1840.00
2018-08-22T05:07:24.603Z,1860.00
2018-08-22T05:08:17.033Z,1884.00
2018-08-22T05:09:17.058Z,1904.00
2018-08-22T05:10:17.011Z,1924.00
2018-08-22T05:11:16.995Z,1944.00
2018-08-22T05:12:16.993Z,1964.00
2018-08-22T05:13:16.981Z,1984.00
2018-08-22T05:14:16.992Z,2004.00
2018-08-22T05:15:16.985Z,2024.00
2018-08-22T05:16:16.947Z,2040.00
2018-08-22T05:17:16.924Z,2064.00
2018-08-22T05:18:16.919Z,2076.00
2018-08-22T05:19:26.197Z,2096.00
2018-08-22T05:20:16.891Z,2116.00
2018-08-22T05:21:16.890Z,2132.00
2018-08-22T05:22:16.898Z,2152.00
2018-08-22T05:23:16.860Z,2168.00
2018-08-22T05:24:16.848Z,2188.00
2018-08-22T05:25:26.215Z,2208.00
2018-08-22T05:26:16.922Z,2224.00
2018-08-22T05:27:16.823Z,2240.00
2018-08-22T05:28:16.835Z,2260.00
2018-08-22T05:29:16.811Z,2276.00
2018-08-22T05:30:16.972Z,2292.00
2018-08-22T05:31:16.777Z,2312.00
2018-08-22T05:32:16.799Z,2324.00
2018-08-22T05:33:16.773Z,2344.00
2018-08-22T05:34:24.722Z,2364.00
2018-08-22T05:35:16.733Z,2384.00
2018-08-22T05:36:16.797Z,2400.00
2018-08-22T05:37:16.711Z,2416.00
2018-08-22T05:38:16.705Z,2436.00
2018-08-22T05:39:16.719Z,2456.00
2018-08-22T05:40:16.678Z,2468.00
2018-08-22T05:41:16.714Z,2488.00
2018-08-22T05:42:16.655Z,2512.00
2018-08-22T05:43:16.641Z,2524.00
2018-08-22T05:44:16.646Z,2544.00
2018-08-22T05:45:16.625Z,2560.00
2018-08-22T05:46:16.661Z,2576.00
2018-08-22T05:47:16.600Z,2592.00
2018-08-22T05:48:16.621Z,2612.00
2018-08-22T05:49:24.261Z,2628.00
2018-08-22T05:50:16.569Z,2644.00
2018-08-22T05:51:16.557Z,2660.00
2018-08-22T05:52:25.796Z,2684.00
2018-08-22T05:53:16.522Z,2696.00
2018-08-22T05:54:16.517Z,2716.00
2018-08-22T05:55:24.301Z,2732.00
2018-08-22T05:56:16.486Z,2744.00
2018-08-22T05:57:16.506Z,2772.00
2018-08-22T05:58:25.895Z,2788.00
2018-08-22T05:59:16.450Z,2808.00
2018-08-22T06:00:16.465Z,2828.00
2018-08-22T06:01:16.458Z,2852.00
2018-08-22T06:02:16.435Z,2868.00
2018-08-22T06:03:16.451Z,2892.00
2018-08-22T06:04:16.456Z,2912.00
2018-08-22T06:05:16.398Z,2936.00
2018-08-22T06:06:16.385Z,2960.00
2018-08-22T06:07:16.371Z,2972.00
2018-08-22T06:08:16.372Z,3004.00
2018-08-22T06:09:16.460Z,3028.00
2018-08-22T06:10:23.875Z,3052.00
2018-08-22T06:11:16.330Z,3084.00
2018-08-22T06:12:16.318Z,3128.00
2018-08-22T06:13:16.319Z,3200.00
2018-08-22T06:14:16.325Z,5740.00
2018-08-22T06:15:16.285Z,12736.00
2018-08-22T06:16:16.308Z,20768.00
2018-08-22T06:17:16.254Z,24544.00
2018-08-22T06:18:16.266Z,25152.00
2018-08-22T06:19:23.916Z,25472.00
2018-08-22T06:20:16.219Z,25088.00
2018-08-22T06:21:16.248Z,26272.00
2018-08-22T06:22:16.195Z,26944.00
2018-08-22T06:23:16.201Z,27712.00
2018-08-22T06:24:16.243Z,27936.00
2018-08-22T06:25:24.219Z,28736.00
2018-08-22T06:26:16.166Z,28768.00
2018-08-22T06:27:16.181Z,29088.00
2018-08-22T06:28:16.143Z,29120.00
2018-08-22T06:29:16.153Z,29696.00
2018-08-22T06:30:16.104Z,30240.00
2018-08-22T06:31:16.104Z,29792.00
2018-08-22T06:32:16.123Z,30048.00
2018-08-22T06:33:16.088Z,31008.00
2018-08-22T06:34:25.509Z,31232.00
2018-08-22T06:35:16.075Z,31712.00
2018-08-22T06:36:16.098Z,32096.00
2018-08-22T06:37:24.029Z,32128.00
2018-08-22T06:38:16.015Z,32672.00
2018-08-22T06:39:16.132Z,32096.00
2018-08-22T06:40:25.086Z,31680.00
2018-08-22T06:41:15.995Z,32832.00
2018-08-22T06:42:15.989Z,33792.00
2018-08-22T06:43:23.595Z,33920.00
2018-08-22T06:44:15.969Z,34176.00
2018-08-22T06:45:16.007Z,34432.00
2018-08-22T06:47:40.112Z,35648.00
2018-08-22T06:48:40.053Z,35360.00
2018-08-22T06:49:48.026Z,34912.00
2018-08-22T06:50:40.031Z,35264.00
2018-08-22T06:51:40.016Z,36512.00
2018-08-22T06:52:40.069Z,37856.00
2018-08-22T06:53:40.014Z,38880.00
2018-08-22T06:54:39.982Z,39072.00
2018-08-22T06:55:40.034Z,38816.00
2018-08-22T06:56:39.988Z,37696.00
2018-08-22T06:57:39.976Z,36928.00
2018-08-22T06:58:48.564Z,37184.00
2018-08-22T06:59:39.928Z,38368.00
2018-08-22T07:00:39.974Z,39392.00
2018-08-22T07:01:47.615Z,39168.00
2018-08-22T07:02:39.898Z,39552.00
2018-08-22T07:03:39.887Z,39712.00
2018-08-22T07:04:39.884Z,39360.00
2018-08-22T07:05:39.903Z,39968.00
2018-08-22T07:06:39.843Z,40640.00
2018-08-22T07:07:52.159Z,40224.00
2018-08-22T07:08:39.828Z,38880.00
2018-08-22T07:09:39.811Z,40608.00
2018-08-22T07:10:39.831Z,41792.00
2018-08-22T07:11:39.853Z,41312.00
2018-08-22T07:12:39.785Z,40768.00
2018-08-22T07:13:39.775Z,40736.00
2018-08-22T07:14:39.762Z,41760.00
2018-08-22T07:15:39.743Z,42752.00
2018-08-22T07:16:39.763Z,44032.00
2018-08-22T07:17:39.729Z,45920.00
2018-08-22T07:18:39.735Z,46656.00
2018-08-22T07:19:39.711Z,47232.00
2018-08-22T07:20:39.689Z,46528.00
2018-08-22T07:21:39.703Z,45888.00
2018-08-22T07:22:39.709Z,11508.00
2018-08-22T07:23:39.667Z,21376.00
2018-08-22T07:24:39.663Z,39936.00
2018-08-22T07:25:39.639Z,13556.00
2018-08-22T07:26:39.761Z,14856.00
2018-08-22T07:27:39.637Z,25152.00
2018-08-22T07:28:39.647Z,10924.00
2018-08-22T07:29:39.606Z,24320.00
2018-08-22T07:30:39.584Z,40544.00
2018-08-22T07:31:39.625Z,7676.00
2018-08-22T07:32:39.573Z,7468.00
2018-08-22T07:33:39.557Z,8012.00
2018-08-22T07:34:39.542Z,6556.00
2018-08-22T07:35:39.562Z,5100.00
2018-08-22T07:36:39.511Z,5540.00
2018-08-22T07:39:23.043Z,6520.00
2018-08-22T07:39:55.244Z,6856.00
2018-08-22T07:40:55.219Z,10064.00
2018-08-22T07:41:55.249Z,11544.00
2018-08-22T07:42:55.227Z,13552.00
2018-08-22T07:43:55.211Z,13312.00
2018-08-22T07:44:55.187Z,18880.00
2018-08-22T07:46:03.003Z,10080.00
2018-08-22T07:46:55.147Z,21472.00
2018-08-22T07:47:55.139Z,26752.00
2018-08-22T07:49:04.555Z,14348.00
2018-08-22T07:49:55.119Z,6388.00
2018-08-22T07:50:55.138Z,6600.00
2018-08-22T07:52:03.079Z,7088.00
2018-08-22T07:52:55.085Z,5616.00
2018-08-22T07:53:55.102Z,5752.00
2018-08-22T07:55:02.597Z,6300.00
2018-08-22T07:55:55.053Z,9944.00
2018-08-22T07:56:55.037Z,16192.00
2018-08-22T07:58:04.160Z,16928.00
2018-08-22T07:58:55.015Z,5764.00
2018-08-22T07:59:54.995Z,6220.00
2018-08-22T08:01:04.199Z,7588.00
2018-08-22T08:01:55.042Z,6596.00
2018-08-22T08:02:54.965Z,8780.00
2018-08-22T08:03:54.949Z,8464.00
2018-08-22T08:04:54.980Z,8008.00
2018-08-22T08:05:54.966Z,5760.00
2018-08-22T08:07:02.732Z,6044.00
2018-08-22T08:07:54.913Z,6400.00
2018-08-22T08:08:54.927Z,8980.00
2018-08-22T08:10:04.266Z,12976.00
2018-08-22T08:10:54.897Z,10168.00
2018-08-22T08:11:54.897Z,6028.00
2018-08-22T08:13:02.795Z,5364.00
2018-08-22T08:13:54.842Z,8980.00
2018-08-22T08:14:54.828Z,5640.00
2018-08-22T08:16:01.909Z,9056.00
2018-08-22T08:16:54.815Z,7884.00
2018-08-22T08:17:54.804Z,7128.00
2018-08-22T08:19:01.844Z,7156.00
2018-08-22T08:19:54.781Z,7360.00
2018-08-22T08:20:54.801Z,6736.00
2018-08-22T08:22:02.871Z,6028.00
2018-08-22T08:22:54.760Z,6628.00
2018-08-22T08:23:54.744Z,6316.00
2018-08-22T08:25:03.945Z,5716.00
2018-08-22T08:25:54.719Z,5740.00
2018-08-22T08:26:54.705Z,5884.00
2018-08-22T08:28:04.973Z,6224.00
2018-08-22T08:28:54.720Z,5792.00
2018-08-22T08:29:54.664Z,5840.00
2018-08-22T08:31:02.479Z,5808.00
2018-08-22T08:31:54.646Z,7284.00
2018-08-22T08:32:54.651Z,16352.00
2018-08-22T08:34:02.514Z,10944.00
2018-08-22T08:34:54.642Z,23072.00
2018-08-22T08:35:54.630Z,16260.00
2018-08-22T08:36:54.578Z,13768.00
2018-08-22T08:37:54.621Z,6264.00
2018-08-22T08:38:54.578Z,9268.00
2018-08-22T08:39:54.550Z,26432.00
2018-08-22T08:40:54.544Z,10612.00
2018-08-22T08:41:54.527Z,15492.00
2018-08-22T08:42:54.553Z,7028.00
2018-08-22T08:43:54.507Z,7616.00
2018-08-22T08:44:54.546Z,10060.00
2018-08-22T08:46:03.537Z,13640.00
2018-08-22T08:46:54.478Z,11948.00
2018-08-22T08:47:54.463Z,10668.00
2018-08-22T08:49:02.598Z,30400.00
2018-08-22T08:49:54.481Z,21792.00
2018-08-22T08:50:54.431Z,12572.00
2018-08-22T08:52:02.117Z,8044.00
2018-08-22T08:52:54.426Z,20032.00
2018-08-22T08:53:54.391Z,12372.00
2018-08-22T08:54:54.435Z,12900.00
2018-08-22T08:55:54.393Z,6124.00
2018-08-22T08:56:54.364Z,9116.00
2018-08-22T08:58:02.279Z,45344.00
2018-08-22T08:58:54.345Z,7916.00
2018-08-22T08:59:54.365Z,6880.00
2018-08-22T09:00:54.313Z,8728.00
2018-08-22T09:01:54.307Z,13120.00
2018-08-22T09:02:54.293Z,7036.00
2018-08-22T09:04:02.292Z,7660.00
2018-08-22T09:04:54.300Z,7096.00
2018-08-22T09:05:54.256Z,6980.00
2018-08-22T09:06:54.247Z,7976.00
2018-08-22T09:07:54.232Z,7820.00
2018-08-22T09:08:54.230Z,10592.00
2018-08-22T09:09:54.247Z,9132.00
2018-08-22T09:10:54.197Z,7904.00
2018-08-22T09:11:54.184Z,13256.00
2018-08-22T09:12:54.179Z,9620.00
2018-08-22T09:13:54.160Z,11448.00
2018-08-22T09:15:54.234Z,13636.00
2018-08-22T09:16:54.138Z,14596.00
2018-08-22T09:17:54.121Z,10996.00
2018-08-22T09:18:54.108Z,29728.00
2018-08-22T09:19:54.141Z,12384.00
2018-08-22T09:20:54.098Z,12036.00
2018-08-22T09:21:54.084Z,26496.00
2018-08-22T09:22:54.068Z,17632.00
2018-08-22T09:23:54.073Z,19200.00
2018-08-22T09:24:54.108Z,80320.00
2018-08-22T09:25:54.034Z,58496.00
2018-08-22T09:26:54.073Z,74208.00
2018-08-22T09:27:54.010Z,72928.00
2018-08-22T09:28:53.996Z,73408.00
2018-08-22T09:29:54.059Z,76992.00
2018-08-22T09:30:54.040Z,80640.00
2018-08-22T09:31:54.015Z,81056.00
2018-08-22T09:32:53.995Z,81664.00
2018-08-22T09:33:53.951Z,80832.00
2018-08-22T09:34:53.946Z,81888.00
2018-08-22T09:35:53.933Z,81248.00
2018-08-22T09:37:03.250Z,81760.00
2018-08-22T09:37:53.899Z,82752.00
2018-08-22T09:38:53.896Z,82208.00
2018-08-22T09:39:53.936Z,81536.00
2018-08-22T09:40:53.879Z,81856.00
2018-08-22T09:41:53.891Z,82304.00
2018-08-22T09:43:03.296Z,81856.00
2018-08-22T09:43:53.845Z,78400.00
2018-08-22T09:44:53.829Z,75360.00
2018-08-22T09:45:53.821Z,72672.00
2018-08-22T09:46:53.809Z,71008.00
2018-08-22T09:47:53.841Z,71200.00
2018-08-22T09:48:53.784Z,72000.00
2018-08-22T09:49:53.790Z,73248.00
2018-08-22T09:50:53.844Z,73280.00
2018-08-22T09:51:53.753Z,70304.00
2018-08-22T09:52:53.796Z,70464.00
2018-08-22T09:53:53.746Z,72704.00
2018-08-22T09:54:53.755Z,74624.00
2018-08-22T09:55:53.723Z,76608.00
2018-08-22T09:56:53.763Z,76480.00
2018-08-22T09:57:53.791Z,76192.00
2018-08-22T09:58:53.702Z,75936.00
2018-08-22T09:59:53.680Z,76288.00
2018-08-22T10:00:53.667Z,78144.00
2018-08-22T10:01:53.712Z,81600.00
2018-08-22T10:02:53.668Z,85792.00
2018-08-22T10:03:53.682Z,86912.00
2018-08-22T10:04:53.615Z,88032.00
2018-08-22T10:05:53.600Z,87936.00
2018-08-22T10:06:53.716Z,87680.00
2018-08-22T10:07:53.596Z,88448.00
2018-08-22T10:08:53.605Z,87232.00
2018-08-22T10:09:53.575Z,88064.00
2018-08-22T10:10:53.548Z,85280.00
2018-08-22T10:11:53.570Z,85344.00
2018-08-22T10:12:53.528Z,87904.00
2018-08-22T10:13:53.592Z,87712.00
2018-08-22T10:14:53.516Z,87328.00
2018-08-22T10:16:01.269Z,87264.00
2018-08-22T10:16:53.492Z,88608.00
2018-08-22T10:17:53.482Z,87936.00
2018-08-22T10:18:53.514Z,88320.00
2018-08-22T10:19:53.462Z,88192.00
2018-08-22T10:20:53.446Z,87104.00
2018-08-22T10:21:53.432Z,88256.00
2018-08-22T10:22:53.429Z,90112.00
2018-08-22T10:23:53.454Z,90464.00
2018-08-22T10:24:53.411Z,89184.00
2018-08-22T10:25:53.409Z,87584.00
2018-08-22T10:26:53.437Z,86304.00
2018-08-22T10:27:53.378Z,86944.00
2018-08-22T10:28:53.417Z,84512.00
2018-08-22T10:29:53.371Z,81664.00
2018-08-22T10:30:53.353Z,78016.00
2018-08-22T10:31:53.365Z,79168.00
2018-08-22T10:32:53.453Z,83296.00
2018-08-22T10:33:53.383Z,88064.00
2018-08-22T10:34:53.346Z,87456.00
2018-08-22T10:35:53.320Z,84352.00
2018-08-22T10:37:01.315Z,87008.00
2018-08-22T10:37:53.289Z,88864.00
2018-08-22T10:38:53.273Z,89568.00
2018-08-22T10:39:53.307Z,90272.00
2018-08-22T10:40:53.253Z,88160.00
2018-08-22T10:41:53.245Z,86336.00
2018-08-22T10:42:53.233Z,88224.00
2018-08-22T10:43:53.227Z,87008.00
2018-08-22T10:44:53.272Z,89344.00
2018-08-22T10:45:53.247Z,88544.00
2018-08-22T10:46:53.221Z,87360.00
2018-08-22T10:47:53.207Z,86304.00
2018-08-22T10:48:53.203Z,86432.00
2018-08-22T10:49:53.214Z,86688.00
2018-08-22T10:50:53.198Z,87008.00
2018-08-22T10:51:53.158Z,86720.00
2018-08-22T10:52:53.133Z,86336.00
2018-08-22T10:53:53.171Z,87776.00
2018-08-22T10:54:53.167Z,88928.00
2018-08-22T10:55:53.109Z,90528.00
2018-08-22T10:56:53.101Z,89920.00
2018-08-22T10:57:53.076Z,90880.00
2018-08-22T10:58:53.106Z,91776.00
2018-08-22T10:59:53.067Z,89440.00
2018-08-22T11:01:01.097Z,89088.00
2018-08-22T11:01:53.046Z,89568.00
2018-08-22T11:02:53.020Z,90784.00
2018-08-22T11:03:53.007Z,90720.00
2018-08-22T11:04:53.009Z,90880.00
2018-08-22T11:05:53.028Z,88928.00
2018-08-22T11:06:52.981Z,87456.00
2018-08-22T11:07:52.981Z,87392.00
2018-08-22T11:08:52.960Z,86496.00
2018-08-22T11:09:52.959Z,82048.00
2018-08-22T11:10:53.025Z,85504.00
2018-08-22T11:11:52.973Z,83040.00
2018-08-22T11:12:52.924Z,82304.00
2018-08-22T11:13:52.940Z,87072.00
2018-08-22T11:14:52.946Z,89440.00
2018-08-22T11:15:53.081Z,89760.00
2018-08-22T11:16:52.948Z,84448.00
2018-08-22T11:17:52.992Z,84576.00
2018-08-22T11:18:52.884Z,85600.00
2018-08-22T11:19:52.878Z,84320.00
2018-08-22T11:20:52.884Z,86080.00
2018-08-22T11:21:52.892Z,84352.00
2018-08-22T11:22:52.893Z,83104.00
2018-08-22T11:23:52.824Z,84576.00
2018-08-22T11:25:00.388Z,83872.00
2018-08-22T11:25:52.790Z,82656.00
2018-08-22T11:26:52.841Z,82272.00
2018-08-22T11:27:52.798Z,85312.00
2018-08-22T11:28:52.792Z,84256.00
2018-08-22T11:29:52.777Z,81152.00
2018-08-22T11:30:52.765Z,86112.00
2018-08-22T11:31:52.806Z,85280.00
2018-08-22T11:32:52.759Z,86592.00
2018-08-22T11:33:52.736Z,87328.00
2018-08-22T11:34:52.730Z,85312.00
2018-08-22T11:35:52.723Z,88928.00
2018-08-22T11:37:01.951Z,88480.00
2018-08-22T11:37:52.725Z,91264.00
2018-08-22T11:38:52.684Z,89856.00
2018-08-22T11:40:02.004Z,89920.00
2018-08-22T11:40:52.687Z,88992.00
2018-08-22T11:41:52.658Z,89088.00
2018-08-22T11:42:52.653Z,89728.00
2018-08-22T11:43:52.638Z,88608.00
2018-08-22T11:44:52.674Z,88768.00
2018-08-22T11:45:52.648Z,86496.00
2018-08-22T11:46:52.704Z,88608.00
2018-08-22T11:47:52.615Z,88768.00
2018-08-22T11:48:52.597Z,84928.00
2018-08-22T11:49:52.623Z,80608.00
2018-08-22T11:50:52.585Z,86432.00
2018-08-22T11:51:52.564Z,83936.00
2018-08-22T11:52:52.558Z,90592.00
2018-08-22T11:53:52.524Z,90976.00
2018-08-22T11:54:52.564Z,89088.00
2018-08-22T11:55:52.512Z,87872.00
2018-08-22T11:56:52.490Z,85728.00
2018-08-22T11:57:52.482Z,86752.00
2018-08-22T11:58:52.464Z,88704.00
2018-08-22T11:59:52.524Z,86368.00
2018-08-22T12:01:00.017Z,88800.00
2018-08-22T12:01:52.514Z,88800.00
2018-08-22T12:02:52.430Z,89728.00
2018-08-22T12:03:52.421Z,87968.00
2018-08-22T12:04:52.472Z,89152.00
2018-08-22T12:05:52.460Z,91200.00
2018-08-22T12:07:00.031Z,89888.00
2018-08-22T12:07:52.380Z,87232.00
2018-08-22T12:08:52.388Z,83328.00
2018-08-22T12:09:52.414Z,81472.00
2018-08-22T12:10:52.369Z,83616.00
2018-08-22T12:11:52.354Z,85408.00
2018-08-22T12:12:52.334Z,88352.00
2018-08-22T12:13:52.321Z,88352.00
2018-08-22T12:14:52.348Z,87904.00
2018-08-22T12:15:52.299Z,86752.00
2018-08-22T12:16:52.353Z,88256.00
2018-08-22T12:17:52.282Z,88288.00
2018-08-22T12:18:52.270Z,88448.00
2018-08-22T12:19:52.254Z,87328.00
2018-08-22T12:20:52.252Z,84000.00
2018-08-22T12:22:01.611Z,88192.00
2018-08-22T12:22:52.260Z,87616.00
2018-08-22T12:23:52.250Z,87104.00
2018-08-22T12:25:00.109Z,85888.00
2018-08-22T12:25:52.219Z,85088.00
2018-08-22T12:26:52.245Z,81280.00
2018-08-22T12:28:02.683Z,79680.00
2018-08-22T12:28:52.186Z,84864.00
2018-08-22T12:29:52.175Z,88256.00
2018-08-22T12:31:00.216Z,89984.00
2018-08-22T12:31:52.150Z,87744.00
2018-08-22T12:32:52.141Z,85664.00
2018-08-22T12:33:52.171Z,85184.00
2018-08-22T12:34:52.115Z,86016.00
2018-08-22T12:35:52.105Z,88384.00
2018-08-22T12:37:00.698Z,87936.00
2018-08-22T12:37:52.223Z,86400.00
2018-08-22T12:38:52.107Z,86400.00
2018-08-22T12:39:59.753Z,84064.00
2018-08-22T12:40:52.554Z,83552.00
2018-08-22T12:41:52.074Z,84416.00
2018-08-22T12:42:59.788Z,86496.00
2018-08-22T12:43:52.035Z,87968.00
2018-08-22T12:44:52.023Z,87520.00
2018-08-22T12:45:52.011Z,81600.00
2018-08-22T12:46:52.044Z,82016.00
2018-08-22T12:47:51.993Z,82368.00
2018-08-22T12:48:51.985Z,84832.00
2018-08-22T12:49:52.051Z,81920.00
2018-08-22T12:50:51.959Z,78432.00
2018-08-22T12:51:52.097Z,74816.00
2018-08-22T12:52:51.943Z,84704.00